Portada
METAR-TAF:

METAR-TAF

Aeropuertos :

Effingham County Memorial Airport

Effingham, Illinois, Estados Unidos

latitud: 39-04-14N, longitud: 088-32-00W, altitud: 179 m

Observación

El informe se hizo hace 25 minutos, a las 20:55 UTC
Viento 7 kt del este-sureste
Temperatura 33°C
Humedad 44%
Presión 1023 hPa
Visibilidad: 16.1 km
Nubes dispersas a una altura de 6000 ft
Nubes dispersas a una altura de 7000 ft

METAR: K1H2 192055Z AUTO 12007KT 10SM SCT060 SCT070 33/19 A3021 RMK AO2 T03310186

Hora: 16:20 (21:20 UTC)


TAF: falta

Observaciones y pronósticos meteorológicos de más de 4000 aeropuertos (mensajes METAR y TAF).

Los puntos amarillos y rojos representan las estaciones disponibles.

Ponga el ratón en el punto deseado para ver el nombre de la estación.

Haga clic para ver las observaciones y los pronósticos meteorológicos.

Para cambiar el mapa : haga clic en los botones verdes con una cruz de color negro para hacer un zoom, en el botón verde con un guión para alejar o en las flechas verdes para mapas adyacentes.


METAR-TAF: